sensor_id;sensor_type;location;lat;lon;timestamp;P1;durP1;ratioP1;P2;durP2;ratioP2
7845;SDS011;3968;51.424;6.788;2023-02-15T00:01:10;24.17;;;17.67;;
7845;SDS011;3968;51.424;6.788;2023-02-15T00:03:37;26.40;;;18.07;;
7845;SDS011;3968;51.424;6.788;2023-02-15T00:06:03;24.73;;;17.93;;
7845;SDS011;3968;51.424;6.788;2023-02-15T00:08:29;25.00;;;17.57;;
7845;SDS011;3968;51.424;6.788;2023-02-15T00:11:05;22.17;;;16.13;;
7845;SDS011;3968;51.424;6.788;2023-02-15T00:13:35;24.47;;;17.30;;
7845;SDS011;3968;51.424;6.788;2023-02-15T00:16:02;24.63;;;16.37;;
7845;SDS011;3968;51.424;6.788;2023-02-15T00:18:29;26.10;;;17.93;;
7845;SDS011;3968;51.424;6.788;2023-02-15T00:20:55;23.57;;;16.93;;
7845;SDS011;3968;51.424;6.788;2023-02-15T00:23:20;24.47;;;17.10;;
7845;SDS011;3968;51.424;6.788;2023-02-15T00:25:46;27.00;;;17.20;;
7845;SDS011;3968;51.424;6.788;2023-02-15T00:28:12;27.00;;;18.10;;
7845;SDS011;3968;51.424;6.788;2023-02-15T00:30:37;26.13;;;18.70;;
7845;SDS011;3968;51.424;6.788;2023-02-15T00:33:03;22.77;;;16.60;;
7845;SDS011;3968;51.424;6.788;2023-02-15T00:35:28;26.03;;;17.33;;
7845;SDS011;3968;51.424;6.788;2023-02-15T00:37:55;25.57;;;18.27;;
7845;SDS011;3968;51.424;6.788;2023-02-15T00:40:21;25.23;;;17.47;;
7845;SDS011;3968;51.424;6.788;2023-02-15T00:42:47;26.17;;;18.37;;
7845;SDS011;3968;51.424;6.788;2023-02-15T00:45:13;28.53;;;18.70;;
7845;SDS011;3968;51.424;6.788;2023-02-15T00:47:38;27.87;;;18.57;;
7845;SDS011;3968;51.424;6.788;2023-02-15T00:50:04;23.87;;;17.83;;
7845;SDS011;3968;51.424;6.788;2023-02-15T00:52:30;27.57;;;18.80;;
7845;SDS011;3968;51.424;6.788;2023-02-15T00:54:56;27.50;;;18.70;;
7845;SDS011;3968;51.424;6.788;2023-02-15T00:57:21;25.33;;;17.53;;
7845;SDS011;3968;51.424;6.788;2023-02-15T00:59:47;26.53;;;18.87;;
7845;SDS011;3968;51.424;6.788;2023-02-15T01:02:13;28.63;;;18.87;;
7845;SDS011;3968;51.424;6.788;2023-02-15T01:04:38;22.87;;;17.53;;
7845;SDS011;3968;51.424;6.788;2023-02-15T01:07:04;24.33;;;18.37;;
7845;SDS011;3968;51.424;6.788;2023-02-15T01:09:29;27.77;;;19.47;;
7845;SDS011;3968;51.424;6.788;2023-02-15T01:11:55;24.93;;;17.57;;
7845;SDS011;3968;51.424;6.788;2023-02-15T01:14:21;27.20;;;18.10;;
7845;SDS011;3968;51.424;6.788;2023-02-15T01:16:48;27.40;;;19.20;;
7845;SDS011;3968;51.424;6.788;2023-02-15T01:19:13;27.03;;;19.23;;
7845;SDS011;3968;51.424;6.788;2023-02-15T01:21:39;27.87;;;19.60;;
7845;SDS011;3968;51.424;6.788;2023-02-15T01:24:10;27.63;;;19.07;;
7845;SDS011;3968;51.424;6.788;2023-02-15T01:26:36;25.17;;;18.00;;
7845;SDS011;3968;51.424;6.788;2023-02-15T01:29:02;26.97;;;18.57;;
7845;SDS011;3968;51.424;6.788;2023-02-15T01:31:28;28.20;;;19.57;;
7845;SDS011;3968;51.424;6.788;2023-02-15T01:33:53;27.03;;;19.73;;
7845;SDS011;3968;51.424;6.788;2023-02-15T01:36:19;25.47;;;18.47;;
7845;SDS011;3968;51.424;6.788;2023-02-15T01:38:45;26.00;;;18.97;;
7845;SDS011;3968;51.424;6.788;2023-02-15T01:41:10;27.00;;;19.13;;
7845;SDS011;3968;51.424;6.788;2023-02-15T01:43:48;25.50;;;18.97;;
7845;SDS011;3968;51.424;6.788;2023-02-15T01:46:16;25.57;;;18.27;;
7845;SDS011;3968;51.424;6.788;2023-02-15T01:48:45;26.87;;;19.07;;
7845;SDS011;3968;51.424;6.788;2023-02-15T01:51:13;29.23;;;19.90;;
7845;SDS011;3968;51.424;6.788;2023-02-15T01:53:49;25.40;;;18.83;;
7845;SDS011;3968;51.424;6.788;2023-02-15T01:56:19;27.97;;;19.27;;
7845;SDS011;3968;51.424;6.788;2023-02-15T01:58:48;25.80;;;19.30;;
7845;SDS011;3968;51.424;6.788;2023-02-15T02:01:15;26.97;;;19.23;;
7845;SDS011;3968;51.424;6.788;2023-02-15T02:03:45;25.57;;;18.97;;
7845;SDS011;3968;51.424;6.788;2023-02-15T02:06:29;31.67;;;20.33;;
7845;SDS011;3968;51.424;6.788;2023-02-15T02:08:55;28.47;;;20.07;;
7845;SDS011;3968;51.424;6.788;2023-02-15T02:11:22;26.17;;;18.97;;
7845;SDS011;3968;51.424;6.788;2023-02-15T02:13:48;29.13;;;20.67;;
7845;SDS011;3968;51.424;6.788;2023-02-15T02:16:24;26.73;;;18.10;;
7845;SDS011;3968;51.424;6.788;2023-02-15T02:19:04;26.93;;;19.63;;
7845;SDS011;3968;51.424;6.788;2023-02-15T02:35:31;28.17;;;19.83;;
7845;SDS011;3968;51.424;6.788;2023-02-15T02:41:32;25.60;;;19.67;;
7845;SDS011;3968;51.424;6.788;2023-02-15T02:44:10;31.27;;;20.43;;
7845;SDS011;3968;51.424;6.788;2023-02-15T02:49:17;27.50;;;20.13;;
7845;SDS011;3968;51.424;6.788;2023-02-15T02:57:53;28.57;;;20.37;;
7845;SDS011;3968;51.424;6.788;2023-02-15T03:00:23;29.33;;;20.53;;
7845;SDS011;3968;51.424;6.788;2023-02-15T03:02:58;28.57;;;19.90;;
7845;SDS011;3968;51.424;6.788;2023-02-15T03:05:30;30.70;;;21.13;;
7845;SDS011;3968;51.424;6.788;2023-02-15T03:07:59;28.57;;;20.50;;
7845;SDS011;3968;51.424;6.788;2023-02-15T03:10:31;25.37;;;18.70;;
7845;SDS011;3968;51.424;6.788;2023-02-15T03:12:59;28.90;;;20.40;;
7845;SDS011;3968;51.424;6.788;2023-02-15T03:15:27;28.50;;;20.70;;
7845;SDS011;3968;51.424;6.788;2023-02-15T03:18:17;27.53;;;19.30;;
7845;SDS011;3968;51.424;6.788;2023-02-15T03:20:45;30.27;;;20.37;;
7845;SDS011;3968;51.424;6.788;2023-02-15T03:23:14;28.73;;;19.93;;
7845;SDS011;3968;51.424;6.788;2023-02-15T03:25:44;27.43;;;19.77;;
7845;SDS011;3968;51.424;6.788;2023-02-15T03:28:15;29.47;;;20.20;;
7845;SDS011;3968;51.424;6.788;2023-02-15T03:30:46;28.30;;;20.73;;
7845;SDS011;3968;51.424;6.788;2023-02-15T03:33:16;31.60;;;20.53;;
7845;SDS011;3968;51.424;6.788;2023-02-15T03:38:15;27.70;;;20.17;;
7845;SDS011;3968;51.424;6.788;2023-02-15T03:40:44;33.77;;;22.30;;
7845;SDS011;3968;51.424;6.788;2023-02-15T03:43:33;28.37;;;20.47;;
7845;SDS011;3968;51.424;6.788;2023-02-15T03:46:08;29.63;;;20.00;;
7845;SDS011;3968;51.424;6.788;2023-02-15T03:48:57;29.57;;;19.93;;
7845;SDS011;3968;51.424;6.788;2023-02-15T03:51:29;31.27;;;20.83;;
7845;SDS011;3968;51.424;6.788;2023-02-15T03:57:11;33.47;;;22.00;;
7845;SDS011;3968;51.424;6.788;2023-02-15T04:00:00;28.40;;;21.40;;
7845;SDS011;3968;51.424;6.788;2023-02-15T04:05:36;28.93;;;21.00;;
7845;SDS011;3968;51.424;6.788;2023-02-15T04:08:02;26.93;;;20.20;;
7845;SDS011;3968;51.424;6.788;2023-02-15T04:10:28;30.90;;;21.30;;
7845;SDS011;3968;51.424;6.788;2023-02-15T04:13:12;30.53;;;20.43;;
7845;SDS011;3968;51.424;6.788;2023-02-15T04:15:38;31.40;;;21.27;;
7845;SDS011;3968;51.424;6.788;2023-02-15T04:18:23;33.97;;;21.97;;
7845;SDS011;3968;51.424;6.788;2023-02-15T04:21:07;28.77;;;20.03;;
7845;SDS011;3968;51.424;6.788;2023-02-15T04:23:51;30.33;;;21.33;;
7845;SDS011;3968;51.424;6.788;2023-02-15T04:26:35;32.10;;;22.70;;
7845;SDS011;3968;51.424;6.788;2023-02-15T04:29:01;28.70;;;20.57;;
7845;SDS011;3968;51.424;6.788;2023-02-15T04:31:26;31.23;;;21.73;;
7845;SDS011;3968;51.424;6.788;2023-02-15T04:33:52;31.70;;;21.30;;
7845;SDS011;3968;51.424;6.788;2023-02-15T04:36:17;30.00;;;21.37;;
7845;SDS011;3968;51.424;6.788;2023-02-15T04:38:43;32.73;;;22.10;;
7845;SDS011;3968;51.424;6.788;2023-02-15T04:41:08;30.90;;;21.50;;
7845;SDS011;3968;51.424;6.788;2023-02-15T04:43:36;31.20;;;21.07;;
7845;SDS011;3968;51.424;6.788;2023-02-15T04:46:02;34.20;;;21.43;;
7845;SDS011;3968;51.424;6.788;2023-02-15T04:48:27;32.17;;;22.67;;
7845;SDS011;3968;51.424;6.788;2023-02-15T04:50:53;31.30;;;20.37;;
7845;SDS011;3968;51.424;6.788;2023-02-15T04:53:18;31.47;;;21.67;;
7845;SDS011;3968;51.424;6.788;2023-02-15T04:55:44;33.07;;;21.70;;
7845;SDS011;3968;51.424;6.788;2023-02-15T04:58:09;29.43;;;21.80;;
7845;SDS011;3968;51.424;6.788;2023-02-15T05:00:35;34.37;;;23.10;;
7845;SDS011;3968;51.424;6.788;2023-02-15T05:03:01;32.10;;;22.63;;
7845;SDS011;3968;51.424;6.788;2023-02-15T05:05:27;33.60;;;22.40;;
7845;SDS011;3968;51.424;6.788;2023-02-15T05:07:52;31.30;;;21.43;;
7845;SDS011;3968;51.424;6.788;2023-02-15T05:10:18;30.23;;;21.17;;
7845;SDS011;3968;51.424;6.788;2023-02-15T05:12:43;30.70;;;21.13;;
7845;SDS011;3968;51.424;6.788;2023-02-15T05:15:09;31.03;;;21.77;;
7845;SDS011;3968;51.424;6.788;2023-02-15T05:17:35;32.90;;;22.87;;
7845;SDS011;3968;51.424;6.788;2023-02-15T05:20:00;30.03;;;21.77;;
7845;SDS011;3968;51.424;6.788;2023-02-15T05:22:26;31.50;;;22.13;;
7845;SDS011;3968;51.424;6.788;2023-02-15T05:24:51;28.93;;;20.53;;
7845;SDS011;3968;51.424;6.788;2023-02-15T05:27:35;33.97;;;22.77;;
7845;SDS011;3968;51.424;6.788;2023-02-15T05:30:20;29.53;;;21.17;;
7845;SDS011;3968;51.424;6.788;2023-02-15T05:32:45;30.07;;;22.33;;
7845;SDS011;3968;51.424;6.788;2023-02-15T05:35:12;34.13;;;22.27;;
7845;SDS011;3968;51.424;6.788;2023-02-15T05:37:40;31.23;;;22.00;;
7845;SDS011;3968;51.424;6.788;2023-02-15T05:40:05;33.17;;;21.87;;
7845;SDS011;3968;51.424;6.788;2023-02-15T05:42:31;31.03;;;22.03;;
7845;SDS011;3968;51.424;6.788;2023-02-15T05:44:57;32.57;;;21.17;;
7845;SDS011;3968;51.424;6.788;2023-02-15T05:47:23;32.53;;;22.43;;
7845;SDS011;3968;51.424;6.788;2023-02-15T05:49:48;31.07;;;22.10;;
7845;SDS011;3968;51.424;6.788;2023-02-15T05:52:14;31.37;;;22.30;;
7845;SDS011;3968;51.424;6.788;2023-02-15T05:54:39;33.27;;;23.27;;
7845;SDS011;3968;51.424;6.788;2023-02-15T05:57:05;31.43;;;21.33;;
7845;SDS011;3968;51.424;6.788;2023-02-15T05:59:30;30.87;;;21.40;;
7845;SDS011;3968;51.424;6.788;2023-02-15T06:01:56;33.73;;;22.27;;
7845;SDS011;3968;51.424;6.788;2023-02-15T06:04:22;29.50;;;21.57;;
7845;SDS011;3968;51.424;6.788;2023-02-15T06:06:47;34.23;;;21.73;;
7845;SDS011;3968;51.424;6.788;2023-02-15T06:09:13;34.00;;;23.17;;
7845;SDS011;3968;51.424;6.788;2023-02-15T06:11:38;31.70;;;22.53;;
7845;SDS011;3968;51.424;6.788;2023-02-15T06:14:04;33.17;;;21.37;;
7845;SDS011;3968;51.424;6.788;2023-02-15T06:16:30;33.63;;;21.70;;
7845;SDS011;3968;51.424;6.788;2023-02-15T06:18:56;32.20;;;21.63;;
7845;SDS011;3968;51.424;6.788;2023-02-15T06:21:21;31.63;;;21.83;;
7845;SDS011;3968;51.424;6.788;2023-02-15T06:23:47;33.10;;;21.93;;
7845;SDS011;3968;51.424;6.788;2023-02-15T06:26:13;32.00;;;22.17;;
7845;SDS011;3968;51.424;6.788;2023-02-15T06:28:38;31.27;;;21.77;;
7845;SDS011;3968;51.424;6.788;2023-02-15T06:31:06;36.57;;;22.67;;
7845;SDS011;3968;51.424;6.788;2023-02-15T06:33:31;34.97;;;23.07;;
7845;SDS011;3968;51.424;6.788;2023-02-15T06:35:58;33.03;;;22.47;;
7845;SDS011;3968;51.424;6.788;2023-02-15T06:38:24;35.07;;;22.47;;
7845;SDS011;3968;51.424;6.788;2023-02-15T06:40:50;31.80;;;23.57;;
7845;SDS011;3968;51.424;6.788;2023-02-15T06:43:15;32.17;;;22.60;;
7845;SDS011;3968;51.424;6.788;2023-02-15T06:45:41;34.17;;;22.77;;
7845;SDS011;3968;51.424;6.788;2023-02-15T06:48:07;32.57;;;21.70;;
7845;SDS011;3968;51.424;6.788;2023-02-15T06:50:33;34.27;;;23.13;;
7845;SDS011;3968;51.424;6.788;2023-02-15T06:52:59;30.13;;;22.30;;
7845;SDS011;3968;51.424;6.788;2023-02-15T06:55:25;30.73;;;21.40;;
7845;SDS011;3968;51.424;6.788;2023-02-15T06:57:51;31.13;;;21.70;;
7845;SDS011;3968;51.424;6.788;2023-02-15T07:00:17;31.77;;;22.20;;
7845;SDS011;3968;51.424;6.788;2023-02-15T07:02:43;29.83;;;21.40;;
7845;SDS011;3968;51.424;6.788;2023-02-15T07:05:09;31.20;;;20.87;;
7845;SDS011;3968;51.424;6.788;2023-02-15T07:07:35;33.50;;;21.80;;
7845;SDS011;3968;51.424;6.788;2023-02-15T07:10:00;33.47;;;21.53;;
7845;SDS011;3968;51.424;6.788;2023-02-15T07:12:26;31.93;;;21.83;;
7845;SDS011;3968;51.424;6.788;2023-02-15T07:15:08;28.87;;;20.83;;
7845;SDS011;3968;51.424;6.788;2023-02-15T07:17:35;31.23;;;21.30;;
7845;SDS011;3968;51.424;6.788;2023-02-15T07:20:06;33.53;;;22.63;;
7845;SDS011;3968;51.424;6.788;2023-02-15T07:22:34;33.60;;;22.83;;
7845;SDS011;3968;51.424;6.788;2023-02-15T07:25:01;33.90;;;23.17;;
7845;SDS011;3968;51.424;6.788;2023-02-15T07:27:31;29.93;;;21.17;;
7845;SDS011;3968;51.424;6.788;2023-02-15T07:29:57;31.70;;;21.70;;
7845;SDS011;3968;51.424;6.788;2023-02-15T07:32:23;32.23;;;21.87;;
7845;SDS011;3968;51.424;6.788;2023-02-15T07:34:48;32.07;;;21.60;;
7845;SDS011;3968;51.424;6.788;2023-02-15T07:37:14;31.17;;;22.10;;
7845;SDS011;3968;51.424;6.788;2023-02-15T07:39:39;31.33;;;21.97;;
7845;SDS011;3968;51.424;6.788;2023-02-15T07:42:05;26.60;;;20.33;;
7845;SDS011;3968;51.424;6.788;2023-02-15T07:44:30;31.20;;;21.00;;
7845;SDS011;3968;51.424;6.788;2023-02-15T07:46:56;31.20;;;20.73;;
7845;SDS011;3968;51.424;6.788;2023-02-15T07:49:22;34.07;;;21.50;;
7845;SDS011;3968;51.424;6.788;2023-02-15T07:51:48;30.77;;;20.70;;
7845;SDS011;3968;51.424;6.788;2023-02-15T07:54:13;31.30;;;20.83;;
7845;SDS011;3968;51.424;6.788;2023-02-15T07:56:39;30.37;;;20.10;;
7845;SDS011;3968;51.424;6.788;2023-02-15T07:59:05;30.10;;;20.60;;
7845;SDS011;3968;51.424;6.788;2023-02-15T08:01:31;28.73;;;19.73;;
7845;SDS011;3968;51.424;6.788;2023-02-15T08:03:59;30.03;;;19.67;;
7845;SDS011;3968;51.424;6.788;2023-02-15T08:06:25;32.50;;;20.33;;
7845;SDS011;3968;51.424;6.788;2023-02-15T08:08:52;28.83;;;19.53;;
7845;SDS011;3968;51.424;6.788;2023-02-15T08:13:54;27.23;;;19.30;;
7845;SDS011;3968;51.424;6.788;2023-02-15T08:17:11;28.13;;;18.93;;
7845;SDS011;3968;51.424;6.788;2023-02-15T08:19:24;26.27;;;17.77;;
7845;SDS011;3968;51.424;6.788;2023-02-15T08:21:55;28.80;;;19.50;;
7845;SDS011;3968;51.424;6.788;2023-02-15T08:24:23;26.30;;;18.57;;
7845;SDS011;3968;51.424;6.788;2023-02-15T08:26:54;26.47;;;18.20;;
7845;SDS011;3968;51.424;6.788;2023-02-15T08:29:21;27.63;;;19.17;;
7845;SDS011;3968;51.424;6.788;2023-02-15T08:31:48;26.77;;;18.70;;
7845;SDS011;3968;51.424;6.788;2023-02-15T08:34:16;26.27;;;19.27;;
7845;SDS011;3968;51.424;6.788;2023-02-15T08:36:43;28.87;;;18.50;;
7845;SDS011;3968;51.424;6.788;2023-02-15T08:39:12;27.87;;;19.17;;
7845;SDS011;3968;51.424;6.788;2023-02-15T08:41:43;25.33;;;17.80;;
7845;SDS011;3968;51.424;6.788;2023-02-15T08:44:10;26.20;;;18.60;;
7845;SDS011;3968;51.424;6.788;2023-02-15T08:46:36;25.77;;;18.27;;
7845;SDS011;3968;51.424;6.788;2023-02-15T08:49:04;26.97;;;18.97;;
7845;SDS011;3968;51.424;6.788;2023-02-15T08:51:32;27.80;;;18.40;;
7845;SDS011;3968;51.424;6.788;2023-02-15T08:54:00;24.10;;;18.30;;
7845;SDS011;3968;51.424;6.788;2023-02-15T08:56:32;25.93;;;18.30;;
7845;SDS011;3968;51.424;6.788;2023-02-15T08:59:00;25.63;;;18.70;;
7845;SDS011;3968;51.424;6.788;2023-02-15T09:01:29;24.93;;;18.67;;
7845;SDS011;3968;51.424;6.788;2023-02-15T09:03:57;25.50;;;17.40;;
7845;SDS011;3968;51.424;6.788;2023-02-15T09:06:25;26.23;;;18.47;;
7845;SDS011;3968;51.424;6.788;2023-02-15T09:08:51;21.70;;;16.60;;
7845;SDS011;3968;51.424;6.788;2023-02-15T09:11:19;26.00;;;18.10;;
7845;SDS011;3968;51.424;6.788;2023-02-15T09:13:49;22.60;;;16.67;;
7845;SDS011;3968;51.424;6.788;2023-02-15T09:16:17;23.33;;;16.90;;
7845;SDS011;3968;51.424;6.788;2023-02-15T09:18:43;25.57;;;17.70;;
7845;SDS011;3968;51.424;6.788;2023-02-15T09:21:09;24.87;;;17.63;;
7845;SDS011;3968;51.424;6.788;2023-02-15T09:23:38;22.93;;;17.57;;
7845;SDS011;3968;51.424;6.788;2023-02-15T09:26:08;23.77;;;16.37;;
7845;SDS011;3968;51.424;6.788;2023-02-15T09:28:36;22.03;;;15.60;;
7845;SDS011;3968;51.424;6.788;2023-02-15T09:31:20;24.13;;;17.63;;
7845;SDS011;3968;51.424;6.788;2023-02-15T09:33:48;22.23;;;15.73;;
7845;SDS011;3968;51.424;6.788;2023-02-15T09:36:18;22.70;;;16.00;;
7845;SDS011;3968;51.424;6.788;2023-02-15T09:38:56;23.50;;;16.40;;
7845;SDS011;3968;51.424;6.788;2023-02-15T09:44:17;23.67;;;17.43;;
7845;SDS011;3968;51.424;6.788;2023-02-15T09:52:33;25.47;;;16.27;;
7845;SDS011;3968;51.424;6.788;2023-02-15T10:05:43;24.57;;;17.23;;
7845;SDS011;3968;51.424;6.788;2023-02-15T10:08:22;22.90;;;16.00;;
7845;SDS011;3968;51.424;6.788;2023-02-15T10:26:08;24.53;;;16.30;;
7845;SDS011;3968;51.424;6.788;2023-02-15T10:28:51;23.13;;;15.97;;
7845;SDS011;3968;51.424;6.788;2023-02-15T10:31:24;21.73;;;15.47;;
7845;SDS011;3968;51.424;6.788;2023-02-15T10:40:08;23.50;;;16.07;;
7845;SDS011;3968;51.424;6.788;2023-02-15T10:55:47;20.77;;;15.20;;
7845;SDS011;3968;51.424;6.788;2023-02-15T11:06:27;22.47;;;15.53;;
7845;SDS011;3968;51.424;6.788;2023-02-15T11:08:54;20.63;;;15.40;;
7845;SDS011;3968;51.424;6.788;2023-02-15T11:11:34;19.37;;;14.67;;
7845;SDS011;3968;51.424;6.788;2023-02-15T11:14:14;21.13;;;15.37;;
7845;SDS011;3968;51.424;6.788;2023-02-15T11:16:53;23.57;;;16.17;;
7845;SDS011;3968;51.424;6.788;2023-02-15T11:19:31;20.57;;;15.73;;
7845;SDS011;3968;51.424;6.788;2023-02-15T11:22:01;22.10;;;15.63;;
7845;SDS011;3968;51.424;6.788;2023-02-15T11:24:30;22.33;;;15.43;;
7845;SDS011;3968;51.424;6.788;2023-02-15T11:29:57;21.80;;;14.77;;
7845;SDS011;3968;51.424;6.788;2023-02-15T11:32:30;20.53;;;14.90;;
7845;SDS011;3968;51.424;6.788;2023-02-15T11:37:46;21.13;;;15.27;;
7845;SDS011;3968;51.424;6.788;2023-02-15T11:43:05;22.63;;;15.00;;
7845;SDS011;3968;51.424;6.788;2023-02-15T11:45:57;20.33;;;14.57;;
7845;SDS011;3968;51.424;6.788;2023-02-15T11:48:23;20.80;;;15.13;;
7845;SDS011;3968;51.424;6.788;2023-02-15T11:50:49;22.70;;;14.43;;
7845;SDS011;3968;51.424;6.788;2023-02-15T11:53:15;21.60;;;14.43;;
7845;SDS011;3968;51.424;6.788;2023-02-15T11:55:43;22.53;;;15.20;;
7845;SDS011;3968;51.424;6.788;2023-02-15T11:58:21;19.33;;;14.20;;
7845;SDS011;3968;51.424;6.788;2023-02-15T12:03:43;20.00;;;14.40;;
7845;SDS011;3968;51.424;6.788;2023-02-15T12:06:35;19.77;;;14.37;;
7845;SDS011;3968;51.424;6.788;2023-02-15T12:09:10;20.77;;;15.07;;
7845;SDS011;3968;51.424;6.788;2023-02-15T12:11:40;20.67;;;14.63;;
7845;SDS011;3968;51.424;6.788;2023-02-15T12:14:10;19.80;;;14.57;;
7845;SDS011;3968;51.424;6.788;2023-02-15T12:16:44;21.63;;;14.30;;
7845;SDS011;3968;51.424;6.788;2023-02-15T12:21:58;18.67;;;13.07;;
7845;SDS011;3968;51.424;6.788;2023-02-15T12:24:27;18.27;;;13.40;;
7845;SDS011;3968;51.424;6.788;2023-02-15T12:27:15;17.53;;;12.77;;
7845;SDS011;3968;51.424;6.788;2023-02-15T12:29:55;18.90;;;13.17;;
7845;SDS011;3968;51.424;6.788;2023-02-15T12:32:24;19.23;;;12.87;;
7845;SDS011;3968;51.424;6.788;2023-02-15T12:34:52;19.13;;;13.07;;
7845;SDS011;3968;51.424;6.788;2023-02-15T12:37:25;18.87;;;13.67;;
7845;SDS011;3968;51.424;6.788;2023-02-15T12:39:57;17.37;;;13.50;;
7845;SDS011;3968;51.424;6.788;2023-02-15T12:42:24;21.17;;;14.17;;
7845;SDS011;3968;51.424;6.788;2023-02-15T12:44:59;22.03;;;14.53;;
7845;SDS011;3968;51.424;6.788;2023-02-15T12:47:29;22.60;;;15.23;;
7845;SDS011;3968;51.424;6.788;2023-02-15T12:50:15;21.07;;;14.17;;
7845;SDS011;3968;51.424;6.788;2023-02-15T12:52:48;20.27;;;14.10;;
7845;SDS011;3968;51.424;6.788;2023-02-15T12:57:49;19.57;;;13.57;;
7845;SDS011;3968;51.424;6.788;2023-02-15T13:00:43;19.87;;;12.30;;
7845;SDS011;3968;51.424;6.788;2023-02-15T13:03:16;19.03;;;12.30;;
7845;SDS011;3968;51.424;6.788;2023-02-15T13:05:44;16.43;;;12.37;;
7845;SDS011;3968;51.424;6.788;2023-02-15T13:08:17;20.40;;;12.47;;
7845;SDS011;3968;51.424;6.788;2023-02-15T13:10:55;17.47;;;11.20;;
7845;SDS011;3968;51.424;6.788;2023-02-15T13:13:53;18.77;;;12.53;;
7845;SDS011;3968;51.424;6.788;2023-02-15T13:16:33;18.53;;;12.73;;
7845;SDS011;3968;51.424;6.788;2023-02-15T13:19:10;18.43;;;11.93;;
7845;SDS011;3968;51.424;6.788;2023-02-15T13:21:49;17.73;;;11.37;;
7845;SDS011;3968;51.424;6.788;2023-02-15T13:24:33;19.83;;;12.77;;
7845;SDS011;3968;51.424;6.788;2023-02-15T13:27:04;17.60;;;11.53;;
7845;SDS011;3968;51.424;6.788;2023-02-15T13:29:31;19.93;;;12.77;;
7845;SDS011;3968;51.424;6.788;2023-02-15T13:32:07;23.23;;;14.93;;
7845;SDS011;3968;51.424;6.788;2023-02-15T13:34:46;26.10;;;15.73;;
7845;SDS011;3968;51.424;6.788;2023-02-15T13:37:16;21.23;;;14.80;;
7845;SDS011;3968;51.424;6.788;2023-02-15T13:40:08;22.97;;;15.30;;
7845;SDS011;3968;51.424;6.788;2023-02-15T13:42:47;32.93;;;19.70;;
7845;SDS011;3968;51.424;6.788;2023-02-15T13:57:15;17.40;;;11.70;;
7845;SDS011;3968;51.424;6.788;2023-02-15T13:59:29;17.03;;;11.53;;
7845;SDS011;3968;51.424;6.788;2023-02-15T14:18:21;25.47;;;16.43;;
7845;SDS011;3968;51.424;6.788;2023-02-15T14:21:06;21.33;;;13.33;;
7845;SDS011;3968;51.424;6.788;2023-02-15T14:23:54;21.77;;;12.87;;
7845;SDS011;3968;51.424;6.788;2023-02-15T14:26:49;21.43;;;12.47;;
7845;SDS011;3968;51.424;6.788;2023-02-15T14:32:04;25.23;;;15.83;;
7845;SDS011;3968;51.424;6.788;2023-02-15T14:40:28;22.10;;;13.17;;
7845;SDS011;3968;51.424;6.788;2023-02-15T14:49:03;20.30;;;12.37;;
7845;SDS011;3968;51.424;6.788;2023-02-15T14:54:54;25.20;;;15.00;;
7845;SDS011;3968;51.424;6.788;2023-02-15T14:59:40;28.90;;;16.07;;
7845;SDS011;3968;51.424;6.788;2023-02-15T15:05:17;25.33;;;14.80;;
7845;SDS011;3968;51.424;6.788;2023-02-15T15:07:46;24.03;;;13.77;;
7845;SDS011;3968;51.424;6.788;2023-02-15T15:12:52;22.47;;;13.53;;
7845;SDS011;3968;51.424;6.788;2023-02-15T15:18:04;26.37;;;16.67;;
7845;SDS011;3968;51.424;6.788;2023-02-15T15:20:42;22.17;;;14.63;;
7845;SDS011;3968;51.424;6.788;2023-02-15T15:25:42;21.63;;;13.93;;
7845;SDS011;3968;51.424;6.788;2023-02-15T15:31:47;22.80;;;13.77;;
7845;SDS011;3968;51.424;6.788;2023-02-15T15:47:32;24.10;;;13.67;;
7845;SDS011;3968;51.424;6.788;2023-02-15T15:50:18;19.07;;;13.77;;
7845;SDS011;3968;51.424;6.788;2023-02-15T15:52:49;18.77;;;12.00;;
7845;SDS011;3968;51.424;6.788;2023-02-15T15:55:18;17.50;;;12.37;;
7845;SDS011;3968;51.424;6.788;2023-02-15T15:57:48;17.43;;;11.70;;
7845;SDS011;3968;51.424;6.788;2023-02-15T16:00:23;23.30;;;13.17;;
7845;SDS011;3968;51.424;6.788;2023-02-15T16:02:56;14.80;;;11.00;;
7845;SDS011;3968;51.424;6.788;2023-02-15T16:05:22;18.63;;;12.63;;
7845;SDS011;3968;51.424;6.788;2023-02-15T16:07:48;21.10;;;12.67;;
7845;SDS011;3968;51.424;6.788;2023-02-15T16:10:32;18.73;;;12.23;;
7845;SDS011;3968;51.424;6.788;2023-02-15T16:13:00;16.90;;;12.30;;
7845;SDS011;3968;51.424;6.788;2023-02-15T16:15:36;17.97;;;11.90;;
7845;SDS011;3968;51.424;6.788;2023-02-15T16:18:13;15.83;;;11.23;;
7845;SDS011;3968;51.424;6.788;2023-02-15T16:20:41;18.60;;;13.07;;
7845;SDS011;3968;51.424;6.788;2023-02-15T16:28:58;16.93;;;12.00;;
7845;SDS011;3968;51.424;6.788;2023-02-15T16:31:24;18.50;;;13.50;;
7845;SDS011;3968;51.424;6.788;2023-02-15T16:33:52;19.53;;;12.33;;
7845;SDS011;3968;51.424;6.788;2023-02-15T16:36:26;17.07;;;12.27;;
7845;SDS011;3968;51.424;6.788;2023-02-15T16:43:52;25.03;;;16.33;;
7845;SDS011;3968;51.424;6.788;2023-02-15T16:48:50;31.57;;;18.90;;
7845;SDS011;3968;51.424;6.788;2023-02-15T16:51:23;31.57;;;17.87;;
7845;SDS011;3968;51.424;6.788;2023-02-15T16:53:51;22.77;;;15.17;;
7845;SDS011;3968;51.424;6.788;2023-02-15T16:56:23;20.47;;;13.67;;
7845;SDS011;3968;51.424;6.788;2023-02-15T16:58:51;16.97;;;12.73;;
7845;SDS011;3968;51.424;6.788;2023-02-15T17:01:20;19.83;;;14.17;;
7845;SDS011;3968;51.424;6.788;2023-02-15T17:03:49;21.73;;;14.70;;
7845;SDS011;3968;51.424;6.788;2023-02-15T17:06:18;18.23;;;14.10;;
7845;SDS011;3968;51.424;6.788;2023-02-15T17:08:50;20.43;;;12.93;;
7845;SDS011;3968;51.424;6.788;2023-02-15T17:11:17;22.47;;;14.37;;
7845;SDS011;3968;51.424;6.788;2023-02-15T17:16:30;24.67;;;15.30;;
7845;SDS011;3968;51.424;6.788;2023-02-15T17:18:58;19.40;;;13.63;;
7845;SDS011;3968;51.424;6.788;2023-02-15T17:21:28;24.93;;;16.00;;
7845;SDS011;3968;51.424;6.788;2023-02-15T17:23:58;22.17;;;15.00;;
7845;SDS011;3968;51.424;6.788;2023-02-15T17:26:30;20.43;;;13.47;;
7845;SDS011;3968;51.424;6.788;2023-02-15T17:28:59;20.90;;;13.63;;
7845;SDS011;3968;51.424;6.788;2023-02-15T17:31:58;19.03;;;14.63;;
7845;SDS011;3968;51.424;6.788;2023-02-15T17:42:46;24.03;;;17.40;;
7845;SDS011;3968;51.424;6.788;2023-02-15T17:45:11;23.37;;;16.17;;
7845;SDS011;3968;51.424;6.788;2023-02-15T17:47:37;23.17;;;15.60;;
7845;SDS011;3968;51.424;6.788;2023-02-15T17:50:05;21.83;;;14.97;;
7845;SDS011;3968;51.424;6.788;2023-02-15T17:52:32;21.40;;;15.10;;
7845;SDS011;3968;51.424;6.788;2023-02-15T17:54:58;24.03;;;15.90;;
7845;SDS011;3968;51.424;6.788;2023-02-15T17:57:59;23.17;;;13.90;;
7845;SDS011;3968;51.424;6.788;2023-02-15T18:00:27;22.77;;;14.03;;
7845;SDS011;3968;51.424;6.788;2023-02-15T18:03:11;19.67;;;13.57;;
7845;SDS011;3968;51.424;6.788;2023-02-15T18:05:55;21.60;;;15.23;;
7845;SDS011;3968;51.424;6.788;2023-02-15T18:08:41;26.03;;;15.87;;
7845;SDS011;3968;51.424;6.788;2023-02-15T18:11:25;18.60;;;14.13;;
7845;SDS011;3968;51.424;6.788;2023-02-15T18:14:01;18.40;;;14.67;;
7845;SDS011;3968;51.424;6.788;2023-02-15T18:16:31;18.60;;;14.17;;
7845;SDS011;3968;51.424;6.788;2023-02-15T18:18:59;19.60;;;14.30;;
7845;SDS011;3968;51.424;6.788;2023-02-15T18:21:25;20.63;;;14.40;;
7845;SDS011;3968;51.424;6.788;2023-02-15T18:23:51;18.20;;;13.30;;
7845;SDS011;3968;51.424;6.788;2023-02-15T18:26:23;17.37;;;13.13;;
7845;SDS011;3968;51.424;6.788;2023-02-15T18:28:50;17.07;;;13.60;;
7845;SDS011;3968;51.424;6.788;2023-02-15T18:31:16;20.53;;;13.23;;
7845;SDS011;3968;51.424;6.788;2023-02-15T18:33:44;48.47;;;31.37;;
7845;SDS011;3968;51.424;6.788;2023-02-15T18:36:31;20.30;;;15.80;;
7845;SDS011;3968;51.424;6.788;2023-02-15T18:39:19;20.37;;;13.80;;
7845;SDS011;3968;51.424;6.788;2023-02-15T18:41:58;17.20;;;13.27;;
7845;SDS011;3968;51.424;6.788;2023-02-15T18:44:24;17.37;;;12.97;;